createdAt,value
2023-04-15T00:00:59.723Z,95236.28
2023-04-15T00:03:28.715Z,95234.50
2023-04-15T00:05:57.535Z,95227.75
2023-04-15T00:08:25.898Z,95221.53
2023-04-15T00:10:54.873Z,95221.69
2023-04-15T00:13:24.950Z,95222.88
2023-04-15T00:15:53.325Z,95217.31
2023-04-15T00:18:21.883Z,95210.75
2023-04-15T00:20:50.198Z,95212.38
2023-04-15T00:23:29.229Z,95215.84
2023-04-15T00:25:57.579Z,95206.47
2023-04-15T00:28:28.008Z,95200.56
2023-04-15T00:30:56.583Z,95205.19
2023-04-15T00:33:25.442Z,95201.91
2023-04-15T00:35:53.751Z,95201.91
2023-04-15T00:38:22.118Z,95207.16
2023-04-15T00:40:50.637Z,95195.03
2023-04-15T00:43:18.971Z,95203.88
2023-04-15T00:45:48.827Z,95202.06
2023-04-15T00:48:17.488Z,95205.53
2023-04-15T00:50:47.439Z,95204.41
2023-04-15T00:53:15.967Z,95205.53
2023-04-15T00:55:45.630Z,95197.84
2023-04-15T00:58:14.190Z,95200.13
2023-04-15T01:00:43.658Z,95193.25
2023-04-15T01:03:13.945Z,95196.53
2023-04-15T01:05:42.893Z,95192.41
2023-04-15T01:08:11.345Z,95188.50
2023-04-15T01:10:40.093Z,95192.59
2023-04-15T01:13:09.197Z,95193.41
2023-04-15T01:15:37.919Z,95195.03
2023-04-15T01:18:07.492Z,95194.88
2023-04-15T01:20:37.688Z,95194.06
2023-04-15T01:23:06.182Z,95195.69
2023-04-15T01:25:36.068Z,95191.59
2023-04-15T01:28:05.041Z,95193.59
2023-04-15T01:30:35.775Z,95187.53
2023-04-15T01:33:04.228Z,95187.84
2023-04-15T01:35:33.240Z,95177.50
2023-04-15T01:38:07.430Z,95190.81
2023-04-15T01:40:37.408Z,95186.56
2023-04-15T01:43:06.151Z,95179.69
2023-04-15T01:45:34.532Z,95178.66
2023-04-15T01:48:03.022Z,95177.69
2023-04-15T01:50:31.480Z,95181.94
2023-04-15T01:52:59.888Z,95177.50
2023-04-15T01:55:28.353Z,95180.97
2023-04-15T01:57:58.231Z,95182.44
2023-04-15T02:00:26.661Z,95183.25
2023-04-15T02:02:55.541Z,95174.06
2023-04-15T02:05:24.289Z,95179.69
2023-04-15T02:07:53.785Z,95176.38
2023-04-15T02:10:22.350Z,95176.56
2023-04-15T02:12:50.707Z,95176.84
2023-04-15T02:15:25.113Z,95180.28
2023-04-15T02:18:02.005Z,95184.03
2023-04-15T02:20:32.325Z,95181.69
2023-04-15T02:23:01.069Z,95191.06
2023-04-15T02:25:29.426Z,95185.44
2023-04-15T02:27:58.897Z,95187.91
2023-04-15T02:30:28.581Z,95181.69
2023-04-15T02:32:57.619Z,95188.22
2023-04-15T02:35:26.091Z,95190.50
2023-04-15T02:37:54.445Z,95188.50
2023-04-15T02:40:22.844Z,95188.50
2023-04-15T02:42:51.252Z,95191.78
2023-04-15T02:45:23.631Z,95182.13
2023-04-15T02:47:53.350Z,95177.84
2023-04-15T02:50:23.574Z,95182.94
2023-04-15T02:52:52.188Z,95188.03
2023-04-15T02:55:20.609Z,95184.75
2023-04-15T02:57:53.602Z,95179.19
2023-04-15T03:00:21.992Z,95188.06
2023-04-15T03:02:52.515Z,95195.75
2023-04-15T03:05:23.596Z,95190.50
2023-04-15T03:07:52.213Z,95201.22
2023-04-15T03:10:20.933Z,95193.31
2023-04-15T03:12:49.808Z,95195.75
2023-04-15T03:15:18.458Z,95196.22
2023-04-15T03:17:49.782Z,95198.69
2023-04-15T03:20:18.354Z,95180.94
2023-04-15T03:22:48.222Z,95189.47
2023-04-15T03:25:16.982Z,95193.91
2023-04-15T03:27:45.434Z,95199.81
2023-04-15T03:30:14.923Z,95187.66
2023-04-15T03:32:43.520Z,95190.47
2023-04-15T03:35:12.047Z,95192.25
2023-04-15T03:37:40.369Z,95193.56
2023-04-15T03:40:11.593Z,95190.75
2023-04-15T03:42:39.953Z,95199.47
2023-04-15T03:45:09.281Z,95193.22
2023-04-15T03:47:37.672Z,95196.50
2023-04-15T03:50:07.519Z,95193.53
2023-04-15T03:52:35.889Z,95194.19
2023-04-15T03:55:04.472Z,95190.53
2023-04-15T03:57:38.119Z,95195.00
2023-04-15T04:00:10.243Z,95194.34
2023-04-15T04:02:38.880Z,95200.13
2023-04-15T04:05:08.217Z,95192.06
2023-04-15T04:07:36.633Z,95201.28
2023-04-15T04:10:05.384Z,95207.69
2023-04-15T04:12:35.365Z,95207.88
2023-04-15T04:15:03.831Z,95209.69
2023-04-15T04:17:32.248Z,95213.28
2023-04-15T04:20:00.648Z,95212.66
2023-04-15T04:22:29.026Z,95213.28
2023-04-15T04:24:59.411Z,95215.59
2023-04-15T04:27:27.758Z,95219.66
2023-04-15T04:29:57.569Z,95215.91
2023-04-15T04:32:26.127Z,95222.78
2023-04-15T04:34:54.518Z,95226.06
2023-04-15T04:37:23.385Z,95229.31
2023-04-15T04:39:51.748Z,95227.72
2023-04-15T04:42:20.141Z,95232.75
2023-04-15T04:44:49.341Z,95230.81
2023-04-15T04:47:19.115Z,95237.69
2023-04-15T04:49:47.757Z,95236.72
2023-04-15T04:52:16.307Z,95230.97
2023-04-15T04:54:44.625Z,95245.91
2023-04-15T04:57:23.027Z,95240.47
2023-04-15T04:59:51.368Z,95238.69
2023-04-15T05:02:21.587Z,95239.50
2023-04-15T05:04:50.191Z,95238.69
2023-04-15T05:07:18.559Z,95244.75
2023-04-15T05:09:46.950Z,95236.56
2023-04-15T05:12:15.394Z,95231.66
2023-04-15T05:14:43.735Z,95229.53
2023-04-15T05:17:12.498Z,95237.59
2023-04-15T05:19:42.291Z,95238.75
2023-04-15T05:22:10.621Z,95237.31
2023-04-15T05:24:38.952Z,95229.91
2023-04-15T05:27:10.685Z,95227.16
2023-04-15T05:29:39.139Z,95231.44
2023-04-15T05:32:07.977Z,95229.19
2023-04-15T05:34:36.487Z,95235.41
2023-04-15T05:37:06.168Z,95228.69
2023-04-15T05:39:34.555Z,95229.84
2023-04-15T05:42:03.585Z,95231.16
2023-04-15T05:44:32.020Z,95236.59
2023-04-15T05:47:00.748Z,95236.78
2023-04-15T05:49:29.209Z,95230.69
2023-04-15T05:51:57.618Z,95231.84
2023-04-15T05:54:27.918Z,95234.31
2023-04-15T05:56:57.614Z,95233.31
2023-04-15T05:59:26.025Z,95230.88
2023-04-15T06:01:54.412Z,95226.25
2023-04-15T06:04:22.979Z,95227.88
2023-04-15T06:06:52.506Z,95227.56
2023-04-15T06:09:20.934Z,95228.22
2023-04-15T06:11:53.209Z,95228.84
2023-04-15T06:14:21.692Z,95226.88
2023-04-15T06:16:53.545Z,95228.34
2023-04-15T06:19:21.874Z,95226.19
2023-04-15T06:21:52.536Z,95222.59
2023-04-15T06:24:21.002Z,95225.06
2023-04-15T06:26:52.493Z,95224.69
2023-04-15T06:29:21.360Z,95221.09
2023-04-15T06:31:51.210Z,95222.56
2023-04-15T06:34:19.657Z,95223.03
2023-04-15T06:36:48.296Z,95218.06
2023-04-15T06:39:16.659Z,95218.53
2023-04-15T06:41:45.072Z,95218.84
2023-04-15T06:44:14.902Z,95216.88
2023-04-15T06:46:43.226Z,95215.91
2023-04-15T06:49:12.328Z,95221.81
2023-04-15T06:51:40.912Z,95219.81
2023-04-15T06:54:09.233Z,95215.22
2023-04-15T06:56:37.622Z,95213.22
2023-04-15T06:59:07.271Z,95214.34
2023-04-15T07:01:37.478Z,95212.19
2023-04-15T07:04:06.616Z,95212.63
2023-04-15T07:06:35.636Z,95218.38
2023-04-15T07:09:05.527Z,95206.88
2023-04-15T07:11:34.222Z,95214.41
2023-04-15T07:14:02.885Z,95221.31
2023-04-15T07:16:38.470Z,95219.31
2023-04-15T07:19:07.393Z,95229.69
2023-04-15T07:21:35.768Z,95234.78
2023-04-15T07:24:04.109Z,95241.47
2023-04-15T07:26:32.498Z,95244.09
2023-04-15T07:29:01.382Z,95245.09
2023-04-15T07:31:30.385Z,95246.56
2023-04-15T07:34:00.440Z,95250.66
2023-04-15T07:36:29.352Z,95251.47
2023-04-15T07:39:04.075Z,95254.75
2023-04-15T07:41:32.916Z,95257.69
2023-04-15T07:44:01.358Z,95265.88
2023-04-15T07:46:29.743Z,95255.78
2023-04-15T07:48:58.121Z,95252.19
2023-04-15T07:51:29.343Z,95254.66
2023-04-15T07:53:57.720Z,95255.13
2023-04-15T07:56:26.462Z,95250.31
2023-04-15T07:58:54.901Z,95250.97
2023-04-15T08:01:23.551Z,95246.69
2023-04-15T08:03:52.889Z,95238.16
2023-04-15T08:06:21.371Z,95241.97
2023-04-15T08:08:54.648Z,95256.91
2023-04-15T08:11:23.287Z,95263.03
2023-04-15T08:13:53.678Z,95262.38
2023-04-15T08:16:24.700Z,95261.53
2023-04-15T08:18:54.313Z,95262.47
2023-04-15T08:21:23.035Z,95268.31
2023-04-15T08:23:54.707Z,95261.03
2023-04-15T08:26:23.624Z,95264.53
2023-04-15T08:28:53.364Z,95264.06
2023-04-15T08:31:22.385Z,95266.66
2023-04-15T08:33:52.505Z,95270.38
2023-04-15T08:36:21.164Z,95258.28
2023-04-15T08:38:56.236Z,95257.59
2023-04-15T08:41:26.198Z,95256.41
2023-04-15T08:43:58.797Z,95261.69
2023-04-15T08:46:27.728Z,95260.66
2023-04-15T08:49:01.099Z,95269.03
2023-04-15T08:51:30.186Z,95274.78
2023-04-15T08:54:01.540Z,95263.88
2023-04-15T08:56:33.701Z,95279.13
2023-04-15T08:59:03.871Z,95279.78
2023-04-15T09:01:33.737Z,95284.53
2023-04-15T09:04:06.700Z,95281.34
2023-04-15T09:06:36.299Z,95281.28
2023-04-15T09:09:06.115Z,95286.81
2023-04-15T09:11:34.611Z,95282.53
2023-04-15T09:14:03.714Z,95291.63
2023-04-15T09:16:32.635Z,95295.50
2023-04-15T09:19:01.225Z,95292.31
2023-04-15T09:21:29.812Z,95291.03
2023-04-15T09:24:00.041Z,95292.22
2023-04-15T09:26:34.996Z,95284.13
2023-04-15T09:29:07.946Z,95284.31
2023-04-15T09:31:36.876Z,95293.03
2023-04-15T09:34:05.399Z,95294.66
2023-04-15T09:36:52.982Z,95288.06
2023-04-15T09:39:21.637Z,95293.59
2023-04-15T09:42:08.010Z,95297.88
2023-04-15T09:44:36.691Z,95299.16
2023-04-15T09:47:05.077Z,95297.16
2023-04-15T09:49:33.621Z,95297.47
2023-04-15T09:52:06.348Z,95299.09
2023-04-15T09:54:36.802Z,95299.91
2023-04-15T09:57:12.247Z,95302.09
2023-04-15T09:59:40.953Z,95312.25
2023-04-15T10:02:09.552Z,95308.66
2023-04-15T10:04:42.190Z,95305.81
2023-04-15T10:07:12.742Z,95301.16
2023-04-15T10:09:42.050Z,95307.09
2023-04-15T10:12:12.534Z,95305.09
2023-04-15T10:14:43.275Z,95297.19
2023-04-15T10:17:13.651Z,95303.28
2023-04-15T10:19:42.953Z,95298.00
2023-04-15T10:22:12.332Z,95308.16
2023-04-15T10:24:41.815Z,95302.72
2023-04-15T10:27:12.188Z,95309.47
2023-04-15T10:29:41.200Z,95311.72
2023-04-15T10:32:10.512Z,95320.09
2023-04-15T10:34:39.594Z,95320.72
2023-04-15T10:37:12.273Z,95319.75
2023-04-15T10:39:42.990Z,95312.25
2023-04-15T10:42:14.071Z,95319.81
2023-04-15T10:44:44.910Z,95323.09
2023-04-15T10:47:15.506Z,95322.28
2023-04-15T10:49:49.968Z,95332.66
2023-04-15T10:52:19.704Z,95329.16
2023-04-15T10:54:48.068Z,95336.91
2023-04-15T10:57:24.021Z,95334.72
2023-04-15T11:00:11.317Z,95330.25
2023-04-15T11:02:42.205Z,95332.91
2023-04-15T11:05:11.458Z,95333.28
2023-04-15T11:07:41.934Z,95332.66
2023-04-15T11:10:48.837Z,95332.81
2023-04-15T11:13:23.743Z,95337.28
2023-04-15T11:15:54.033Z,95336.44
2023-04-15T11:18:24.222Z,95329.81
2023-04-15T11:20:55.706Z,95335.19
2023-04-15T11:23:31.257Z,95326.72
2023-04-15T11:26:00.476Z,95329.97
2023-04-15T11:28:31.535Z,95324.81
2023-04-15T11:31:06.679Z,95327.69
2023-04-15T11:33:35.476Z,95324.34
2023-04-15T11:36:04.698Z,95334.34
2023-04-15T11:38:33.142Z,95332.59
2023-04-15T11:41:04.431Z,95327.94
2023-04-15T11:43:35.566Z,95320.03
2023-04-15T11:46:04.976Z,95322.09
2023-04-15T11:48:35.326Z,95331.09
2023-04-15T11:51:05.246Z,95328.16
2023-04-15T11:53:42.130Z,95323.16
2023-04-15T11:56:11.654Z,95328.03
2023-04-15T11:58:42.524Z,95319.13
2023-04-15T12:01:13.994Z,95326.88
2023-04-15T12:03:44.637Z,95328.31
2023-04-15T12:06:19.284Z,95331.94
2023-04-15T12:09:05.459Z,95330.94
2023-04-15T12:11:36.871Z,95334.56
2023-04-15T12:14:09.579Z,95332.56
2023-04-15T12:16:48.309Z,95333.22
2023-04-15T12:19:25.247Z,95328.38
2023-04-15T12:21:55.528Z,95336.28
2023-04-15T12:24:24.199Z,95335.47
2023-04-15T12:26:55.135Z,95339.50
2023-04-15T12:29:28.275Z,95334.78
2023-04-15T12:31:58.029Z,95356.47
2023-04-15T12:34:30.588Z,95342.19
2023-04-15T12:37:00.229Z,95336.44
2023-04-15T12:39:31.250Z,95351.47
2023-04-15T12:42:01.787Z,95348.38
2023-04-15T12:44:31.616Z,95353.03
2023-04-15T12:47:00.804Z,95355.66
2023-04-15T12:49:29.888Z,95359.34
2023-04-15T12:52:00.563Z,95361.13
2023-04-15T12:54:29.717Z,95362.31
2023-04-15T12:56:59.238Z,95366.97
2023-04-15T12:59:27.785Z,95375.28
2023-04-15T13:01:57.918Z,95374.00
2023-04-15T13:04:30.539Z,95372.53
2023-04-15T13:06:59.244Z,95376.38
2023-04-15T13:09:27.882Z,95384.03
2023-04-15T13:11:57.684Z,95389.84
2023-04-15T13:14:27.150Z,95398.94
2023-04-15T13:16:58.151Z,95394.50
2023-04-15T13:19:26.776Z,95406.84
2023-04-15T13:21:57.140Z,95408.03
2023-04-15T13:24:25.698Z,95407.41
2023-04-15T13:26:55.340Z,95417.31
2023-04-15T13:29:23.750Z,95422.44
2023-04-15T13:31:52.472Z,95421.41
2023-04-15T13:34:22.312Z,95432.59
2023-04-15T13:36:50.753Z,95440.34
2023-04-15T13:39:19.144Z,95429.50
2023-04-15T13:41:48.463Z,95441.88
2023-04-15T13:44:16.970Z,95449.97
2023-04-15T13:46:45.514Z,95450.06
2023-04-15T13:49:13.852Z,95456.22
2023-04-15T13:51:43.730Z,95463.75
2023-04-15T13:54:12.376Z,95464.81
2023-04-15T13:56:40.839Z,95464.72
2023-04-15T13:59:09.327Z,95455.53
2023-04-15T14:01:37.863Z,95449.63
2023-04-15T14:04:06.943Z,95453.25
2023-04-15T14:06:35.751Z,95453.63
2023-04-15T14:09:05.733Z,95451.97
2023-04-15T14:11:35.418Z,95451.16
2023-04-15T14:14:04.156Z,95451.81
2023-04-15T14:16:33.956Z,95455.72
2023-04-15T14:19:02.880Z,95460.19
2023-04-15T14:21:32.621Z,95462.63
2023-04-15T14:24:01.186Z,95469.38
2023-04-15T14:26:30.924Z,95477.63
2023-04-15T14:28:59.433Z,95483.25
2023-04-15T14:31:28.013Z,95492.78
2023-04-15T14:33:57.181Z,95485.69
2023-04-15T14:36:26.070Z,95484.53
2023-04-15T14:38:55.239Z,95483.53
2023-04-15T14:41:23.613Z,95494.72
2023-04-15T14:43:53.927Z,95493.09
2023-04-15T14:46:22.373Z,95497.19
2023-04-15T14:48:51.009Z,95501.09
2023-04-15T14:51:20.728Z,95499.09
2023-04-15T14:53:50.152Z,95507.84
2023-04-15T14:56:18.598Z,95507.84
2023-04-15T14:58:47.036Z,95515.78
2023-04-15T15:01:16.941Z,95516.56
2023-04-15T15:03:45.768Z,95524.66
2023-04-15T15:06:14.554Z,95519.38
2023-04-15T15:08:43.007Z,95532.22
2023-04-15T15:11:11.565Z,95531.03
2023-04-15T15:13:39.974Z,95530.06
2023-04-15T15:16:09.107Z,95535.13
2023-04-15T15:18:38.993Z,95539.44
2023-04-15T15:21:07.567Z,95545.34
2023-04-15T15:23:35.955Z,95547.97
2023-04-15T15:26:04.417Z,95546.31
2023-04-15T15:28:33.025Z,95549.16
2023-04-15T15:31:01.811Z,95556.22
2023-04-15T15:33:30.370Z,95559.88
2023-04-15T15:36:00.524Z,95557.41
2023-04-15T15:38:29.431Z,95561.03
2023-04-15T15:41:00.323Z,95568.69
2023-04-15T15:43:28.722Z,95560.47
2023-04-15T15:45:59.386Z,95557.00
2023-04-15T15:48:28.073Z,95564.44
2023-04-15T15:50:58.742Z,95563.97
2023-04-15T15:53:28.678Z,95573.22
2023-04-15T15:55:59.226Z,95574.41
2023-04-15T15:58:27.620Z,95576.22
2023-04-15T16:00:56.793Z,95574.72
2023-04-15T16:03:25.564Z,95576.53
2023-04-15T16:05:54.073Z,95579.97
2023-04-15T16:08:22.445Z,95583.78
2023-04-15T16:10:52.248Z,95591.88
2023-04-15T16:13:20.696Z,95594.66
2023-04-15T16:15:50.998Z,95594.66
2023-04-15T16:18:19.756Z,95595.69
2023-04-15T16:20:48.167Z,95599.28
2023-04-15T16:23:17.747Z,95601.75
2023-04-15T16:25:46.470Z,95613.75
2023-04-15T16:28:25.691Z,95618.22
2023-04-15T16:30:57.891Z,95616.75
2023-04-15T16:33:26.323Z,95620.53
2023-04-15T16:35:54.739Z,95623.88
2023-04-15T16:38:23.347Z,95622.09
2023-04-15T16:40:52.758Z,95631.63
2023-04-15T16:43:22.509Z,95638.34
2023-04-15T16:45:51.566Z,95640.47
2023-04-15T16:48:20.384Z,95650.84
2023-04-15T16:50:48.798Z,95659.75
2023-04-15T16:53:17.755Z,95655.28
2023-04-15T16:55:47.440Z,95665.03
2023-04-15T16:58:15.884Z,95660.28
2023-04-15T17:00:46.185Z,95663.56
2023-04-15T17:03:14.799Z,95676.09
2023-04-15T17:05:43.405Z,95676.44
2023-04-15T17:08:11.911Z,95681.22
2023-04-15T17:10:40.380Z,95685.19
2023-04-15T17:13:08.817Z,95690.78
2023-04-15T17:15:37.286Z,95698.22
2023-04-15T17:18:08.636Z,95696.75
2023-04-15T17:20:37.109Z,95698.22
2023-04-15T17:23:05.583Z,95696.75
2023-04-15T17:25:33.932Z,95704.31
2023-04-15T17:28:02.376Z,95708.28
2023-04-15T17:30:30.825Z,95710.13
2023-04-15T17:33:00.757Z,95711.09
2023-04-15T17:35:30.817Z,95725.44
2023-04-15T17:38:00.260Z,95722.16
2023-04-15T17:40:28.641Z,95734.81
2023-04-15T17:42:59.490Z,95739.59
2023-04-15T17:45:27.892Z,95737.31
2023-04-15T17:47:56.294Z,95739.44
2023-04-15T17:50:24.788Z,95744.69
2023-04-15T17:52:54.499Z,95748.28
2023-04-15T17:55:24.299Z,95747.47
2023-04-15T17:57:52.805Z,95755.88
2023-04-15T18:00:21.431Z,95755.38
2023-04-15T18:02:50.041Z,95761.47
2023-04-15T18:05:19.858Z,95765.09
2023-04-15T18:07:49.051Z,95777.13
2023-04-15T18:10:19.687Z,95777.78
2023-04-15T18:13:00.496Z,95782.53
2023-04-15T18:15:29.006Z,95786.47
2023-04-15T18:17:59.842Z,95788.63
2023-04-15T18:20:28.525Z,95794.03
2023-04-15T18:22:58.873Z,95797.47
2023-04-15T18:25:30.076Z,95808.50
2023-04-15T18:28:00.789Z,95801.56
2023-04-15T18:30:29.787Z,95808.50
2023-04-15T18:33:00.846Z,95810.78
2023-04-15T18:35:29.934Z,95813.75
2023-04-15T18:38:01.090Z,95816.38
2023-04-15T18:40:30.876Z,95824.59
2023-04-15T18:43:01.454Z,95816.69
2023-04-15T18:45:31.164Z,95824.44
2023-04-15T18:48:00.245Z,95829.84
2023-04-15T18:50:28.723Z,95834.75
2023-04-15T18:52:57.106Z,95830.81
2023-04-15T18:55:25.473Z,95844.13
2023-04-15T18:57:56.767Z,95844.94
2023-04-15T19:00:36.425Z,95847.19
2023-04-15T19:03:05.465Z,95849.16
2023-04-15T19:05:34.070Z,95852.75
2023-04-15T19:08:06.021Z,95855.56
2023-04-15T19:10:35.536Z,95854.72
2023-04-15T19:13:05.308Z,95863.09
2023-04-15T19:15:33.801Z,95866.41
2023-04-15T19:18:02.263Z,95871.97
2023-04-15T19:20:33.972Z,95870.63
2023-04-15T19:23:05.117Z,95881.28
2023-04-15T19:25:33.537Z,95882.44
2023-04-15T19:28:01.892Z,95879.00
2023-04-15T19:30:33.064Z,95888.03
2023-04-15T19:33:01.616Z,95887.50
2023-04-15T19:35:29.964Z,95886.00
2023-04-15T19:38:01.352Z,95899.31
2023-04-15T19:40:29.827Z,95893.22
2023-04-15T19:42:58.189Z,95899.91
2023-04-15T19:45:27.093Z,95904.22
2023-04-15T19:47:56.923Z,95905.34
2023-04-15T19:50:27.632Z,95905.50
2023-04-15T19:52:56.038Z,95905.66
2023-04-15T19:55:24.441Z,95902.22
2023-04-15T19:58:02.890Z,95900.91
2023-04-15T20:00:31.884Z,95899.91
2023-04-15T20:03:05.133Z,95904.88
2023-04-15T20:05:33.720Z,95910.00
2023-04-15T20:08:02.559Z,95907.22
2023-04-15T20:10:32.513Z,95907.22
2023-04-15T20:13:02.108Z,95916.88
2023-04-15T20:15:30.637Z,95917.72
2023-04-15T20:18:00.397Z,95917.88
2023-04-15T20:20:30.427Z,95920.50
2023-04-15T20:22:59.216Z,95919.00
2023-04-15T20:25:27.760Z,95925.25
2023-04-15T20:28:01.191Z,95926.88
2023-04-15T20:30:30.034Z,95930.34
2023-04-15T20:32:59.153Z,95933.66
2023-04-15T20:35:31.044Z,95929.50
2023-04-15T20:38:01.228Z,95934.75
2023-04-15T20:40:29.973Z,95940.00
2023-04-15T20:42:58.405Z,95936.72
2023-04-15T20:45:27.043Z,95941.00
2023-04-15T20:47:56.153Z,95943.50
2023-04-15T20:50:24.605Z,95943.31
2023-04-15T20:52:53.020Z,95945.94
2023-04-15T20:55:22.883Z,95950.53
2023-04-15T20:57:51.330Z,95950.38
2023-04-15T21:00:19.743Z,95954.97
2023-04-15T21:02:48.383Z,95957.75
2023-04-15T21:05:17.012Z,95955.63
2023-04-15T21:07:45.439Z,95959.94
2023-04-15T21:10:13.915Z,95970.59
2023-04-15T21:12:53.054Z,95962.72
2023-04-15T21:15:21.655Z,95963.38
2023-04-15T21:17:50.141Z,95966.97
2023-04-15T21:20:20.809Z,95965.03
2023-04-15T21:22:50.013Z,95968.50
2023-04-15T21:25:18.456Z,95972.09
2023-04-15T21:27:46.803Z,95973.22
2023-04-15T21:30:16.501Z,95982.75
2023-04-15T21:32:44.886Z,95986.22
2023-04-15T21:35:13.337Z,95992.28
2023-04-15T21:37:41.877Z,95997.03
2023-04-15T21:40:11.632Z,95985.84
2023-04-15T21:42:39.996Z,95980.72
2023-04-15T21:45:09.050Z,95988.63
2023-04-15T21:48:00.902Z,95999.81
2023-04-15T21:50:27.459Z,96004.78
2023-04-15T21:52:56.136Z,95997.03
2023-04-15T21:55:24.787Z,96006.59
2023-04-15T21:57:53.289Z,96007.91
2023-04-15T22:00:23.122Z,96000.84
2023-04-15T22:02:53.274Z,96005.28
2023-04-15T22:05:22.006Z,96004.47
2023-04-15T22:07:50.494Z,96011.38
2023-04-15T22:10:19.565Z,96004.47
2023-04-15T22:12:47.923Z,96012.38
2023-04-15T22:15:16.747Z,96014.81
2023-04-15T22:17:45.258Z,96022.56
2023-04-15T22:20:15.270Z,96014.66
2023-04-15T22:22:44.842Z,96013.84
2023-04-15T22:25:13.630Z,96022.41
2023-04-15T22:27:42.029Z,96026.84
2023-04-15T22:30:11.574Z,96032.41
2023-04-15T22:32:39.992Z,96033.41
2023-04-15T22:35:09.158Z,96036.69
2023-04-15T22:37:39.425Z,96035.69
2023-04-15T22:40:08.902Z,96041.78
2023-04-15T22:42:37.386Z,96044.41
2023-04-15T22:45:06.804Z,96045.53
2023-04-15T22:47:35.251Z,96044.41
2023-04-15T22:50:03.650Z,96044.72
2023-04-15T22:52:32.053Z,96045.84
2023-04-15T22:55:01.848Z,96050.41
2023-04-15T22:57:30.255Z,96053.72
2023-04-15T22:59:58.686Z,96054.44
2023-04-15T23:02:27.325Z,96053.56
2023-04-15T23:04:56.587Z,96056.53
2023-04-15T23:07:25.448Z,96051.28
2023-04-15T23:09:53.797Z,96049.59
2023-04-15T23:12:23.597Z,96049.75
2023-04-15T23:14:52.012Z,96051.88
2023-04-15T23:17:20.436Z,96061.53
2023-04-15T23:19:49.033Z,96058.09
2023-04-15T23:22:17.457Z,96046.63
2023-04-15T23:24:45.828Z,96052.69
2023-04-15T23:27:14.518Z,96057.13
2023-04-15T23:29:44.369Z,96058.25
2023-04-15T23:32:12.729Z,96061.88
2023-04-15T23:34:41.084Z,96072.06
2023-04-15T23:37:09.435Z,96070.56
2023-04-15T23:39:37.856Z,96066.75
2023-04-15T23:42:06.186Z,96070.50
2023-04-15T23:44:34.539Z,96075.59
2023-04-15T23:47:04.349Z,96075.75
2023-04-15T23:49:32.939Z,96080.16
2023-04-15T23:52:11.735Z,96081.28
2023-04-15T23:54:40.829Z,96084.59
2023-04-15T23:57:09.214Z,96079.50
2023-04-15T23:59:37.791Z,96078.81
